Kezdőlap
METAR-TAF:

METAR-TAF

Repülőterek :

Pittsfield Penstone Municipal Airport

Pittsfield, Illinois, Amerikai Egyesült Államok

földrajzi szélesség: 39-38-20N, földrajzi hosszúság: 090-46-42W, magasság: 216 m

Jelenlegi meteorológiai megfigyelések

A jelentés 13 perccel ezelõtt készült, 10:15 UTC
Déli szél 5 kt
Hőmérséklet 8°C
Páratartalom 100%
Légköri nyomás 1003 hPa
Látótávolság: 11.3 km
Borult 1100 lábon

METAR: KPPQ 091015Z AUTO 17005KT 7SM OVC011 08/08 A2962 RMK AO2 T00800080

Idő: 04:28 (10:28 UTC)


TAF: hiányzik

Meteorológiai megfigyelések és előrejelzések több, mint 4000 repülőtéren (METAR és TAF jelentéseket).

A térképen piros és sárga pontok jelzik az elérhető meteorológiai állomásokat.

Mozgassa az egeret a pont fölött, hogy megjelenjen az állomás neve.

Azután kattintson az időjárási megfigyelések és előrejelzések megtekintéséhez.

A térkép megváltoztatása: kattintson a fekete keresztel jelölt zöld gombra ráközelítéshez, a vonallal jelölt zöld gombra távolításhoz, vagy a zöld nyilakra a szomszédos térképek eléréséhez.


METAR-TAF: